sensor_id;sensor_type;location;lat;lon;timestamp;P1;durP1;ratioP1;P2;durP2;ratioP2
53688;SDS011;39583;54.682;30.662;2024-02-21T07:36:29;15.10;;;8.35;;
53688;SDS011;39583;54.682;30.662;2024-02-21T07:38:58;12.77;;;6.57;;
53688;SDS011;39583;54.682;30.662;2024-02-21T07:41:25;12.45;;;5.95;;
53688;SDS011;39583;54.682;30.662;2024-02-21T07:43:53;12.80;;;6.57;;
53688;SDS011;39583;54.682;30.662;2024-02-21T07:46:21;9.90;;;5.90;;
53688;SDS011;39583;54.682;30.662;2024-02-21T07:48:49;11.27;;;6.35;;
53688;SDS011;39583;54.682;30.662;2024-02-21T07:51:17;11.32;;;6.47;;
53688;SDS011;39583;54.682;30.662;2024-02-21T07:53:45;9.30;;;5.57;;
53688;SDS011;39583;54.682;30.662;2024-02-21T07:56:15;9.95;;;5.95;;
53688;SDS011;39583;54.682;30.662;2024-02-21T07:58:42;9.13;;;5.05;;
53688;SDS011;39583;54.682;30.662;2024-02-21T08:01:10;9.02;;;5.25;;
53688;SDS011;39583;54.682;30.662;2024-02-21T08:03:38;9.57;;;5.47;;
53688;SDS011;39583;54.682;30.662;2024-02-21T08:06:06;10.30;;;6.22;;
53688;SDS011;39583;54.682;30.662;2024-02-21T08:08:39;9.95;;;5.90;;
53688;SDS011;39583;54.682;30.662;2024-02-21T08:11:07;8.68;;;5.78;;
53688;SDS011;39583;54.682;30.662;2024-02-21T08:13:35;11.68;;;6.10;;
53688;SDS011;39583;54.682;30.662;2024-02-21T08:16:11;12.30;;;6.18;;
53688;SDS011;39583;54.682;30.662;2024-02-21T08:18:39;11.60;;;6.18;;
53688;SDS011;39583;54.682;30.662;2024-02-21T08:21:07;10.10;;;5.45;;
53688;SDS011;39583;54.682;30.662;2024-02-21T08:23:34;10.77;;;6.05;;
53688;SDS011;39583;54.682;30.662;2024-02-21T08:26:05;10.50;;;5.47;;
53688;SDS011;39583;54.682;30.662;2024-02-21T08:28:33;9.38;;;5.80;;
53688;SDS011;39583;54.682;30.662;2024-02-21T08:31:00;11.18;;;6.15;;
53688;SDS011;39583;54.682;30.662;2024-02-21T08:33:28;10.05;;;5.47;;
53688;SDS011;39583;54.682;30.662;2024-02-21T08:35:57;10.15;;;6.35;;
53688;SDS011;39583;54.682;30.662;2024-02-21T08:38:24;11.57;;;6.47;;
53688;SDS011;39583;54.682;30.662;2024-02-21T08:40:52;13.13;;;7.05;;
53688;SDS011;39583;54.682;30.662;2024-02-21T08:43:20;10.68;;;6.22;;
53688;SDS011;39583;54.682;30.662;2024-02-21T08:45:47;13.50;;;6.57;;
53688;SDS011;39583;54.682;30.662;2024-02-21T08:48:15;11.68;;;6.40;;
53688;SDS011;39583;54.682;30.662;2024-02-21T08:50:42;11.20;;;5.93;;
53688;SDS011;39583;54.682;30.662;2024-02-21T08:53:10;11.35;;;6.35;;
53688;SDS011;39583;54.682;30.662;2024-02-21T08:55:38;11.48;;;6.88;;
53688;SDS011;39583;54.682;30.662;2024-02-21T08:58:06;15.48;;;6.88;;
53688;SDS011;39583;54.682;30.662;2024-02-21T09:00:33;12.10;;;5.55;;
53688;SDS011;39583;54.682;30.662;2024-02-21T09:03:00;10.48;;;6.13;;
53688;SDS011;39583;54.682;30.662;2024-02-21T09:05:28;10.80;;;6.13;;
53688;SDS011;39583;54.682;30.662;2024-02-21T09:07:56;14.00;;;6.53;;
53688;SDS011;39583;54.682;30.662;2024-02-21T09:10:24;18.48;;;6.28;;
53688;SDS011;39583;54.682;30.662;2024-02-21T09:12:52;11.85;;;6.13;;
53688;SDS011;39583;54.682;30.662;2024-02-21T09:15:20;13.40;;;6.68;;
53688;SDS011;39583;54.682;30.662;2024-02-21T09:17:47;13.60;;;6.93;;
53688;SDS011;39583;54.682;30.662;2024-02-21T09:20:22;11.73;;;7.00;;
53688;SDS011;39583;54.682;30.662;2024-02-21T09:22:53;9.95;;;6.45;;
53688;SDS011;39583;54.682;30.662;2024-02-21T09:25:22;12.57;;;6.20;;
53688;SDS011;39583;54.682;30.662;2024-02-21T09:27:49;12.68;;;7.30;;
53688;SDS011;39583;54.682;30.662;2024-02-21T09:30:19;14.10;;;7.57;;
53688;SDS011;39583;54.682;30.662;2024-02-21T09:32:46;12.70;;;6.47;;
53688;SDS011;39583;54.682;30.662;2024-02-21T09:35:15;12.30;;;6.95;;
53688;SDS011;39583;54.682;30.662;2024-02-21T09:37:42;14.52;;;6.97;;
53688;SDS011;39583;54.682;30.662;2024-02-21T09:40:10;13.48;;;7.63;;
53688;SDS011;39583;54.682;30.662;2024-02-21T09:42:39;14.20;;;7.40;;
53688;SDS011;39583;54.682;30.662;2024-02-21T09:45:07;13.10;;;7.38;;
53688;SDS011;39583;54.682;30.662;2024-02-21T09:50:28;12.43;;;6.93;;
53688;SDS011;39583;54.682;30.662;2024-02-21T09:52:58;14.60;;;7.30;;
53688;SDS011;39583;54.682;30.662;2024-02-21T09:55:29;13.35;;;7.30;;
53688;SDS011;39583;54.682;30.662;2024-02-21T09:58:02;13.35;;;6.60;;
53688;SDS011;39583;54.682;30.662;2024-02-21T10:00:33;14.18;;;6.95;;
53688;SDS011;39583;54.682;30.662;2024-02-21T10:03:00;12.50;;;7.40;;
53688;SDS011;39583;54.682;30.662;2024-02-21T10:05:28;13.90;;;7.65;;
53688;SDS011;39583;54.682;30.662;2024-02-21T10:07:56;13.65;;;7.13;;
53688;SDS011;39583;54.682;30.662;2024-02-21T10:10:24;13.52;;;7.82;;
53688;SDS011;39583;54.682;30.662;2024-02-21T10:12:54;15.57;;;7.97;;
53688;SDS011;39583;54.682;30.662;2024-02-21T10:15:23;13.70;;;7.70;;
53688;SDS011;39583;54.682;30.662;2024-02-21T10:17:58;14.07;;;7.68;;
53688;SDS011;39583;54.682;30.662;2024-02-21T10:20:27;12.88;;;7.65;;
53688;SDS011;39583;54.682;30.662;2024-02-21T10:23:04;17.60;;;8.10;;
53688;SDS011;39583;54.682;30.662;2024-02-21T10:25:37;11.65;;;7.18;;
53688;SDS011;39583;54.682;30.662;2024-02-21T10:28:09;15.43;;;8.23;;
53688;SDS011;39583;54.682;30.662;2024-02-21T10:30:49;15.73;;;8.00;;
53688;SDS011;39583;54.682;30.662;2024-02-21T10:33:18;15.93;;;9.18;;
53688;SDS011;39583;54.682;30.662;2024-02-21T10:35:49;16.35;;;9.27;;
53688;SDS011;39583;54.682;30.662;2024-02-21T10:38:17;16.33;;;8.02;;
53688;SDS011;39583;54.682;30.662;2024-02-21T10:40:44;18.58;;;8.55;;
53688;SDS011;39583;54.682;30.662;2024-02-21T10:43:14;14.63;;;7.65;;
53688;SDS011;39583;54.682;30.662;2024-02-21T10:45:46;16.13;;;8.27;;
53688;SDS011;39583;54.682;30.662;2024-02-21T10:48:15;16.52;;;8.55;;
53688;SDS011;39583;54.682;30.662;2024-02-21T10:50:47;16.48;;;9.05;;
53688;SDS011;39583;54.682;30.662;2024-02-21T10:53:24;14.77;;;7.97;;
53688;SDS011;39583;54.682;30.662;2024-02-21T10:56:29;14.52;;;7.38;;
53688;SDS011;39583;54.682;30.662;2024-02-21T10:58:58;19.58;;;9.10;;
53688;SDS011;39583;54.682;30.662;2024-02-21T11:01:28;13.98;;;7.28;;
53688;SDS011;39583;54.682;30.662;2024-02-21T11:04:02;17.02;;;8.18;;
53688;SDS011;39583;54.682;30.662;2024-02-21T11:06:36;13.98;;;7.80;;
53688;SDS011;39583;54.682;30.662;2024-02-21T11:09:06;14.02;;;7.53;;
53688;SDS011;39583;54.682;30.662;2024-02-21T11:14:10;17.00;;;8.07;;
53688;SDS011;39583;54.682;30.662;2024-02-21T11:16:45;17.58;;;7.65;;
53688;SDS011;39583;54.682;30.662;2024-02-21T11:19:24;15.55;;;8.15;;
53688;SDS011;39583;54.682;30.662;2024-02-21T11:21:54;17.10;;;8.70;;
53688;SDS011;39583;54.682;30.662;2024-02-21T11:27:08;16.70;;;7.72;;
53688;SDS011;39583;54.682;30.662;2024-02-21T11:29:45;17.10;;;9.07;;
53688;SDS011;39583;54.682;30.662;2024-02-21T11:32:15;16.30;;;8.10;;
53688;SDS011;39583;54.682;30.662;2024-02-21T11:34:55;17.60;;;7.80;;
53688;SDS011;39583;54.682;30.662;2024-02-21T11:37:24;17.77;;;8.65;;
53688;SDS011;39583;54.682;30.662;2024-02-21T11:39:56;18.13;;;8.38;;
53688;SDS011;39583;54.682;30.662;2024-02-21T11:42:25;16.40;;;8.68;;
53688;SDS011;39583;54.682;30.662;2024-02-21T11:44:55;15.40;;;7.68;;
53688;SDS011;39583;54.682;30.662;2024-02-21T11:47:28;15.73;;;8.43;;
53688;SDS011;39583;54.682;30.662;2024-02-21T11:49:56;17.85;;;8.55;;
53688;SDS011;39583;54.682;30.662;2024-02-21T11:52:24;15.65;;;8.80;;
53688;SDS011;39583;54.682;30.662;2024-02-21T11:54:53;16.30;;;9.10;;
53688;SDS011;39583;54.682;30.662;2024-02-21T11:57:23;20.77;;;9.10;;
53688;SDS011;39583;54.682;30.662;2024-02-21T11:59:51;16.75;;;8.23;;
53688;SDS011;39583;54.682;30.662;2024-02-21T12:02:26;15.48;;;8.18;;
53688;SDS011;39583;54.682;30.662;2024-02-21T12:04:54;14.55;;;8.23;;
53688;SDS011;39583;54.682;30.662;2024-02-21T12:07:22;18.48;;;9.20;;
53688;SDS011;39583;54.682;30.662;2024-02-21T12:09:51;16.63;;;9.18;;
53688;SDS011;39583;54.682;30.662;2024-02-21T12:12:22;14.43;;;7.43;;
53688;SDS011;39583;54.682;30.662;2024-02-21T12:14:54;17.20;;;8.52;;
53688;SDS011;39583;54.682;30.662;2024-02-21T12:17:23;15.30;;;8.40;;
53688;SDS011;39583;54.682;30.662;2024-02-21T12:19:51;18.35;;;9.35;;
53688;SDS011;39583;54.682;30.662;2024-02-21T12:22:18;17.92;;;8.80;;
53688;SDS011;39583;54.682;30.662;2024-02-21T12:24:46;15.90;;;8.48;;
53688;SDS011;39583;54.682;30.662;2024-02-21T12:27:15;17.95;;;9.18;;
53688;SDS011;39583;54.682;30.662;2024-02-21T12:29:43;17.70;;;8.52;;
53688;SDS011;39583;54.682;30.662;2024-02-21T12:32:10;15.80;;;8.32;;
53688;SDS011;39583;54.682;30.662;2024-02-21T12:34:38;16.60;;;8.48;;
53688;SDS011;39583;54.682;30.662;2024-02-21T12:37:21;15.57;;;8.15;;
53688;SDS011;39583;54.682;30.662;2024-02-21T12:39:49;18.80;;;9.05;;
53688;SDS011;39583;54.682;30.662;2024-02-21T12:42:17;18.33;;;8.88;;
53688;SDS011;39583;54.682;30.662;2024-02-21T12:44:45;13.57;;;7.60;;
53688;SDS011;39583;54.682;30.662;2024-02-21T12:47:13;16.83;;;9.00;;
53688;SDS011;39583;54.682;30.662;2024-02-21T12:49:40;14.85;;;7.78;;
53688;SDS011;39583;54.682;30.662;2024-02-21T12:52:12;17.00;;;8.32;;
53688;SDS011;39583;54.682;30.662;2024-02-21T12:54:41;17.02;;;8.48;;
53688;SDS011;39583;54.682;30.662;2024-02-21T12:57:10;15.98;;;8.07;;
53688;SDS011;39583;54.682;30.662;2024-02-21T12:59:42;13.85;;;7.78;;
53688;SDS011;39583;54.682;30.662;2024-02-21T13:02:10;13.32;;;7.93;;
53688;SDS011;39583;54.682;30.662;2024-02-21T13:04:53;18.75;;;7.88;;
53688;SDS011;39583;54.682;30.662;2024-02-21T13:07:21;15.65;;;8.05;;
53688;SDS011;39583;54.682;30.662;2024-02-21T13:09:49;14.82;;;7.93;;
53688;SDS011;39583;54.682;30.662;2024-02-21T13:12:16;14.07;;;7.53;;
53688;SDS011;39583;54.682;30.662;2024-02-21T13:14:44;19.65;;;8.82;;
53688;SDS011;39583;54.682;30.662;2024-02-21T13:17:13;16.80;;;8.15;;
53688;SDS011;39583;54.682;30.662;2024-02-21T13:19:42;17.55;;;7.35;;
53688;SDS011;39583;54.682;30.662;2024-02-21T13:22:09;17.42;;;8.25;;
53688;SDS011;39583;54.682;30.662;2024-02-21T13:24:38;14.80;;;8.55;;
53688;SDS011;39583;54.682;30.662;2024-02-21T13:27:05;17.33;;;8.05;;
53688;SDS011;39583;54.682;30.662;2024-02-21T13:29:33;15.68;;;7.70;;
53688;SDS011;39583;54.682;30.662;2024-02-21T13:32:01;18.98;;;9.30;;
53688;SDS011;39583;54.682;30.662;2024-02-21T13:34:29;16.05;;;7.95;;
53688;SDS011;39583;54.682;30.662;2024-02-21T13:36:57;18.40;;;8.80;;
53688;SDS011;39583;54.682;30.662;2024-02-21T13:39:26;17.67;;;8.73;;
53688;SDS011;39583;54.682;30.662;2024-02-21T13:41:53;13.30;;;7.15;;
53688;SDS011;39583;54.682;30.662;2024-02-21T13:44:21;16.75;;;8.85;;
53688;SDS011;39583;54.682;30.662;2024-02-21T13:46:49;16.85;;;8.10;;
53688;SDS011;39583;54.682;30.662;2024-02-21T13:49:16;16.88;;;8.57;;
53688;SDS011;39583;54.682;30.662;2024-02-21T13:51:44;16.95;;;8.63;;
53688;SDS011;39583;54.682;30.662;2024-02-21T13:54:12;16.30;;;8.40;;
53688;SDS011;39583;54.682;30.662;2024-02-21T13:56:44;18.63;;;8.77;;
53688;SDS011;39583;54.682;30.662;2024-02-21T13:59:12;15.20;;;8.52;;
53688;SDS011;39583;54.682;30.662;2024-02-21T14:01:43;17.35;;;7.75;;
53688;SDS011;39583;54.682;30.662;2024-02-21T14:04:10;17.92;;;9.13;;
53688;SDS011;39583;54.682;30.662;2024-02-21T14:06:39;15.48;;;9.02;;
53688;SDS011;39583;54.682;30.662;2024-02-21T14:09:11;15.18;;;8.35;;
53688;SDS011;39583;54.682;30.662;2024-02-21T14:11:39;18.92;;;9.43;;
53688;SDS011;39583;54.682;30.662;2024-02-21T14:14:09;16.38;;;8.13;;
53688;SDS011;39583;54.682;30.662;2024-02-21T14:16:37;18.70;;;8.77;;
53688;SDS011;39583;54.682;30.662;2024-02-21T14:19:04;17.20;;;8.85;;
53688;SDS011;39583;54.682;30.662;2024-02-21T14:21:34;17.63;;;9.02;;
53688;SDS011;39583;54.682;30.662;2024-02-21T14:24:04;18.20;;;9.13;;
53688;SDS011;39583;54.682;30.662;2024-02-21T14:26:33;15.75;;;7.45;;
53688;SDS011;39583;54.682;30.662;2024-02-21T14:29:01;19.50;;;8.70;;
53688;SDS011;39583;54.682;30.662;2024-02-21T14:31:31;17.30;;;9.25;;
53688;SDS011;39583;54.682;30.662;2024-02-21T14:33:59;18.30;;;9.18;;
53688;SDS011;39583;54.682;30.662;2024-02-21T14:36:28;14.18;;;8.00;;
53688;SDS011;39583;54.682;30.662;2024-02-21T14:38:56;20.95;;;8.85;;
53688;SDS011;39583;54.682;30.662;2024-02-21T14:41:23;16.83;;;8.18;;
53688;SDS011;39583;54.682;30.662;2024-02-21T14:43:52;20.58;;;9.27;;
53688;SDS011;39583;54.682;30.662;2024-02-21T14:46:20;16.08;;;8.10;;
53688;SDS011;39583;54.682;30.662;2024-02-21T14:48:47;17.17;;;8.88;;
53688;SDS011;39583;54.682;30.662;2024-02-21T14:51:15;16.52;;;8.27;;
53688;SDS011;39583;54.682;30.662;2024-02-21T14:53:43;18.17;;;8.60;;
53688;SDS011;39583;54.682;30.662;2024-02-21T14:56:15;18.40;;;9.40;;
53688;SDS011;39583;54.682;30.662;2024-02-21T15:01:13;19.50;;;8.88;;
53688;SDS011;39583;54.682;30.662;2024-02-21T15:03:41;15.48;;;8.40;;
53688;SDS011;39583;54.682;30.662;2024-02-21T15:06:10;18.15;;;8.98;;
53688;SDS011;39583;54.682;30.662;2024-02-21T15:08:39;17.80;;;8.93;;
53688;SDS011;39583;54.682;30.662;2024-02-21T15:11:07;19.70;;;8.98;;
53688;SDS011;39583;54.682;30.662;2024-02-21T15:13:35;23.27;;;8.63;;
53688;SDS011;39583;54.682;30.662;2024-02-21T15:16:04;19.30;;;9.35;;
53688;SDS011;39583;54.682;30.662;2024-02-21T15:18:32;16.02;;;8.73;;
53688;SDS011;39583;54.682;30.662;2024-02-21T15:21:00;18.45;;;9.38;;
53688;SDS011;39583;54.682;30.662;2024-02-21T15:23:28;19.42;;;9.27;;
53688;SDS011;39583;54.682;30.662;2024-02-21T15:25:56;18.40;;;8.40;;
53688;SDS011;39583;54.682;30.662;2024-02-21T15:28:24;19.20;;;9.10;;
53688;SDS011;39583;54.682;30.662;2024-02-21T15:30:51;16.77;;;8.88;;
53688;SDS011;39583;54.682;30.662;2024-02-21T15:33:19;18.48;;;8.88;;
53688;SDS011;39583;54.682;30.662;2024-02-21T15:35:47;21.88;;;9.20;;
53688;SDS011;39583;54.682;30.662;2024-02-21T15:38:16;18.15;;;8.40;;
53688;SDS011;39583;54.682;30.662;2024-02-21T15:40:44;22.38;;;8.77;;
53688;SDS011;39583;54.682;30.662;2024-02-21T15:43:12;17.05;;;8.73;;
53688;SDS011;39583;54.682;30.662;2024-02-21T15:45:39;22.83;;;9.85;;
53688;SDS011;39583;54.682;30.662;2024-02-21T15:48:07;21.80;;;9.18;;
53688;SDS011;39583;54.682;30.662;2024-02-21T15:50:35;19.85;;;8.40;;
53688;SDS011;39583;54.682;30.662;2024-02-21T15:53:04;19.75;;;8.77;;
53688;SDS011;39583;54.682;30.662;2024-02-21T15:55:32;16.65;;;8.77;;
53688;SDS011;39583;54.682;30.662;2024-02-21T15:57:59;20.17;;;8.93;;
53688;SDS011;39583;54.682;30.662;2024-02-21T16:00:27;20.02;;;9.50;;
53688;SDS011;39583;54.682;30.662;2024-02-21T16:02:55;16.25;;;9.18;;
53688;SDS011;39583;54.682;30.662;2024-02-21T16:05:24;19.05;;;8.45;;
53688;SDS011;39583;54.682;30.662;2024-02-21T16:07:51;19.27;;;9.50;;
53688;SDS011;39583;54.682;30.662;2024-02-21T16:10:19;16.90;;;8.20;;
53688;SDS011;39583;54.682;30.662;2024-02-21T16:12:47;20.02;;;8.63;;
53688;SDS011;39583;54.682;30.662;2024-02-21T16:15:18;17.48;;;9.50;;
53688;SDS011;39583;54.682;30.662;2024-02-21T16:17:45;19.90;;;9.65;;
53688;SDS011;39583;54.682;30.662;2024-02-21T16:20:14;22.80;;;9.52;;
53688;SDS011;39583;54.682;30.662;2024-02-21T16:22:43;18.20;;;8.65;;
53688;SDS011;39583;54.682;30.662;2024-02-21T16:25:10;20.58;;;9.25;;
53688;SDS011;39583;54.682;30.662;2024-02-21T16:27:38;19.20;;;9.52;;
53688;SDS011;39583;54.682;30.662;2024-02-21T16:30:07;23.92;;;10.43;;
53688;SDS011;39583;54.682;30.662;2024-02-21T16:32:35;25.10;;;11.55;;
53688;SDS011;39583;54.682;30.662;2024-02-21T16:35:06;29.20;;;11.63;;
53688;SDS011;39583;54.682;30.662;2024-02-21T16:37:35;22.52;;;10.90;;
53688;SDS011;39583;54.682;30.662;2024-02-21T16:40:04;26.42;;;12.20;;
53688;SDS011;39583;54.682;30.662;2024-02-21T16:42:32;23.17;;;11.38;;
53688;SDS011;39583;54.682;30.662;2024-02-21T16:45:00;27.95;;;10.77;;
53688;SDS011;39583;54.682;30.662;2024-02-21T16:47:28;31.33;;;10.32;;
53688;SDS011;39583;54.682;30.662;2024-02-21T16:49:57;25.88;;;11.80;;
53688;SDS011;39583;54.682;30.662;2024-02-21T16:52:25;30.98;;;10.80;;
53688;SDS011;39583;54.682;30.662;2024-02-21T16:54:54;23.98;;;10.93;;
53688;SDS011;39583;54.682;30.662;2024-02-21T16:57:23;24.92;;;10.85;;
53688;SDS011;39583;54.682;30.662;2024-02-21T16:59:51;27.23;;;11.27;;
53688;SDS011;39583;54.682;30.662;2024-02-21T17:02:18;33.00;;;11.70;;
53688;SDS011;39583;54.682;30.662;2024-02-21T17:04:47;24.40;;;10.18;;
53688;SDS011;39583;54.682;30.662;2024-02-21T17:07:17;25.17;;;10.77;;
53688;SDS011;39583;54.682;30.662;2024-02-21T17:09:45;31.17;;;11.90;;
53688;SDS011;39583;54.682;30.662;2024-02-21T17:12:12;25.60;;;11.13;;
53688;SDS011;39583;54.682;30.662;2024-02-21T17:14:40;22.45;;;9.38;;
53688;SDS011;39583;54.682;30.662;2024-02-21T17:17:11;31.52;;;11.93;;
53688;SDS011;39583;54.682;30.662;2024-02-21T17:19:39;26.10;;;10.57;;
53688;SDS011;39583;54.682;30.662;2024-02-21T17:22:07;29.65;;;11.38;;
53688;SDS011;39583;54.682;30.662;2024-02-21T17:24:34;25.33;;;10.65;;
53688;SDS011;39583;54.682;30.662;2024-02-21T17:27:02;23.67;;;9.63;;
53688;SDS011;39583;54.682;30.662;2024-02-21T17:29:31;25.80;;;11.02;;
53688;SDS011;39583;54.682;30.662;2024-02-21T17:31:58;32.78;;;11.40;;
53688;SDS011;39583;54.682;30.662;2024-02-21T17:34:27;28.98;;;10.50;;
53688;SDS011;39583;54.682;30.662;2024-02-21T17:36:55;24.75;;;10.45;;
53688;SDS011;39583;54.682;30.662;2024-02-21T17:39:22;29.50;;;11.43;;
53688;SDS011;39583;54.682;30.662;2024-02-21T17:41:50;25.38;;;10.32;;
53688;SDS011;39583;54.682;30.662;2024-02-21T17:44:20;30.98;;;10.23;;
53688;SDS011;39583;54.682;30.662;2024-02-21T17:46:49;28.95;;;10.23;;
53688;SDS011;39583;54.682;30.662;2024-02-21T17:49:17;20.02;;;8.88;;
53688;SDS011;39583;54.682;30.662;2024-02-21T17:51:47;22.48;;;9.85;;
53688;SDS011;39583;54.682;30.662;2024-02-21T17:54:15;24.48;;;10.35;;
53688;SDS011;39583;54.682;30.662;2024-02-21T17:56:43;24.45;;;11.20;;
53688;SDS011;39583;54.682;30.662;2024-02-21T17:59:11;27.80;;;10.57;;
53688;SDS011;39583;54.682;30.662;2024-02-21T18:01:39;27.45;;;10.80;;
53688;SDS011;39583;54.682;30.662;2024-02-21T18:04:07;29.15;;;11.05;;
53688;SDS011;39583;54.682;30.662;2024-02-21T18:06:35;25.35;;;10.68;;
53688;SDS011;39583;54.682;30.662;2024-02-21T18:09:02;28.55;;;11.13;;
53688;SDS011;39583;54.682;30.662;2024-02-21T18:11:31;34.05;;;11.43;;
53688;SDS011;39583;54.682;30.662;2024-02-21T18:13:59;22.85;;;9.73;;
53688;SDS011;39583;54.682;30.662;2024-02-21T18:16:29;25.83;;;11.32;;
53688;SDS011;39583;54.682;30.662;2024-02-21T18:18:57;29.52;;;11.85;;
53688;SDS011;39583;54.682;30.662;2024-02-21T18:21:25;25.55;;;12.32;;
53688;SDS011;39583;54.682;30.662;2024-02-21T18:23:54;32.13;;;11.30;;
53688;SDS011;39583;54.682;30.662;2024-02-21T18:26:22;24.48;;;11.95;;
53688;SDS011;39583;54.682;30.662;2024-02-21T18:28:49;28.95;;;12.93;;
53688;SDS011;39583;54.682;30.662;2024-02-21T18:31:19;23.30;;;11.00;;
53688;SDS011;39583;54.682;30.662;2024-02-21T18:33:46;30.05;;;12.10;;
53688;SDS011;39583;54.682;30.662;2024-02-21T18:36:15;35.38;;;12.52;;
